Time;durP1;ratioP1;P1;durP2;ratioP2;P2;SDS_P1;SDS_P2;PMS_P1;PMS_P2;Temp;Humidity;BMP_temperature;BMP_pressure;BME280_temperature;BME280_humidity;BME280_pressure;Samples;Min_cycle;Max_cycle;Signal;HPM_P1;HPM_P2
2023/07/14 00:01:53;;;;;;;18.77;4.85;;;665.70;2432.00;;;;;;5070145;28;20028;-67
2023/07/14 00:04:25;;;;;;;11.50;4.65;;;;;;;;;;5070313;28;20044;-66
2023/07/14 00:06:50;;;;;;;11.38;4.63;;;665.60;2432.00;;;;;;5070209;28;20020;-67
2023/07/14 00:09:20;;;;;;;11.07;4.60;;;640.70;2432.00;;;;;;5069943;28;20497;-68
2023/07/14 00:11:46;;;;;;;10.63;3.90;;;640.70;2432.00;;;;;;5070367;28;20017;-69
2023/07/14 00:14:12;;;;;;;11.57;3.40;;;640.70;2432.00;;;;;;5069751;28;20162;-68
2023/07/14 00:16:38;;;;;;;8.32;3.30;;;640.60;2432.00;;;;;;5069695;28;20527;-66
2023/07/14 00:19:13;;;;;;;7.45;3.38;;;640.50;2432.00;;;;;;5069964;28;20032;-67
2023/07/14 00:21:38;;;;;;;13.27;4.28;;;640.50;2432.00;;;;;;5070074;28;20382;-66
2023/07/14 00:24:11;;;;;;;7.28;3.63;;;640.50;2432.00;;;;;;5069656;28;20016;-65
2023/07/14 00:26:37;;;;;;;5.57;3.22;;;640.60;2432.00;;;;;;5069651;28;20024;-65
2023/07/14 00:29:25;;;;;;;10.32;3.67;;;640.60;2432.00;;;;;;5069641;28;20041;-66
2023/07/14 00:31:50;;;;;;;8.80;3.42;;;640.60;2432.00;;;;;;5083176;28;20831;-67
2023/07/14 00:34:16;;;;;;;10.40;3.45;;;640.50;2432.00;;;;;;5079205;28;20095;-67
2023/07/14 00:36:42;;;;;;;12.55;3.63;;;640.40;2432.00;;;;;;5073562;28;20465;-70
2023/07/14 00:39:07;;;;;;;9.50;3.20;;;640.40;2432.00;;;;;;5069912;28;20025;-68
2023/07/14 00:41:33;;;;;;;8.95;3.47;;;640.30;2432.00;;;;;;5069288;28;20383;-66
2023/07/14 00:43:59;;;;;;;7.47;3.17;;;640.40;2432.00;;;;;;5069361;28;20088;-67
2023/07/14 00:46:29;;;;;;;10.70;4.20;;;640.40;2432.00;;;;;;5069066;28;20119;-65
2023/07/14 00:48:59;;;;;;;8.75;3.40;;;640.40;2432.00;;;;;;5082306;28;20029;-66
2023/07/14 00:51:29;;;;;;;6.03;3.00;;;640.20;2432.00;;;;;;5077364;28;20051;-66
2023/07/14 00:53:56;;;;;;;6.65;2.67;;;640.10;2432.00;;;;;;5080088;28;20032;-67
2023/07/14 00:56:35;;;;;;;10.68;2.88;;;640.10;2432.00;;;;;;5089560;28;20464;-67
2023/07/14 00:59:08;;;;;;;5.25;2.70;;;640.10;2432.00;;;;;;5089277;28;20100;-68
2023/07/14 01:01:34;;;;;;;11.00;2.83;;;640.00;2432.00;;;;;;5089017;28;20024;-67
2023/07/14 01:04:00;;;;;;;5.63;2.33;;;615.30;2432.00;;;;;;5089628;28;20861;-67
2023/07/14 01:06:39;;;;;;;7.30;3.03;;;615.30;2432.00;;;;;;5089023;28;20026;-68
2023/07/14 01:09:09;;;;;;;7.68;2.50;;;640.00;2432.00;;;;;;5089917;28;20090;-68
2023/07/14 01:11:46;;;;;;;7.07;2.92;;;640.00;2432.00;;;;;;5089525;28;20012;-68
2023/07/14 01:14:17;;;;;;;6.28;2.72;;;640.00;2432.00;;;;;;5089107;28;20020;-68
2023/07/14 01:16:43;;;;;;;8.07;2.58;;;640.00;2432.00;;;;;;5088871;28;20097;-69
2023/07/14 01:19:27;;;;;;;9.82;2.95;;;640.00;2432.00;;;;;;5089541;28;20037;-66
2023/07/14 01:22:04;;;;;;;5.75;2.38;;;615.20;2432.00;;;;;;5089266;28;20032;-68
2023/07/14 01:24:41;;;;;;;8.45;2.67;;;615.20;2432.00;;;;;;5077211;28;20590;-67
2023/07/14 01:27:08;;;;;;;6.18;2.85;;;615.10;2432.00;;;;;;5089341;28;20020;-67
2023/07/14 01:29:35;;;;;;;4.10;2.53;;;615.10;2432.00;;;;;;5089282;28;20059;-67
2023/07/14 01:32:03;;;;;;;5.35;3.05;;;615.00;2432.00;;;;;;5088968;28;20107;-67
2023/07/14 01:34:28;;;;;;;5.43;2.83;;;614.90;2432.00;;;;;;5089323;28;20085;-67
2023/07/14 01:36:58;;;;;;;6.55;2.50;;;614.90;2432.00;;;;;;5089102;28;20375;-69
2023/07/14 01:39:28;;;;;;;7.68;3.13;;;614.90;2432.00;;;;;;5088866;28;20035;-69
2023/07/14 01:41:53;;;;;;;5.72;2.90;;;614.70;2432.00;;;;;;5088762;28;20536;-68
2023/07/14 01:44:21;;;;;;;7.35;3.10;;;614.70;2432.00;;;;;;5089116;28;20020;-69
2023/07/14 01:46:48;;;;;;;8.48;3.03;;;614.60;2432.00;;;;;;5088267;28;20122;-69
2023/07/14 01:49:40;;;;;;;3.78;2.47;;;614.70;2432.00;;;;;;5088860;28;20040;-69
2023/07/14 01:52:12;;;;;;;7.60;2.90;;;614.70;2432.00;;;;;;5089262;28;20015;-67
2023/07/14 01:54:47;;;;;;;8.02;3.60;;;614.70;2432.00;;;;;;5088892;28;20033;-68
2023/07/14 01:57:17;;;;;;;7.07;3.25;;;614.80;2432.00;;;;;;5088726;28;20028;-69
2023/07/14 01:59:59;;;;;;;4.82;2.80;;;614.70;2432.00;;;;;;5088647;28;20028;-69
2023/07/14 02:02:30;;;;;;;8.00;3.35;;;614.60;2432.00;;;;;;5088673;28;20028;-68
2023/07/14 02:04:56;;;;;;;7.93;3.45;;;614.60;2432.00;;;;;;5088554;28;20493;-68
2023/07/14 02:07:22;;;;;;;4.05;2.70;;;614.60;2432.00;;;;;;5088831;28;20107;-68
2023/07/14 02:09:48;;;;;;;5.30;2.83;;;614.40;2432.00;;;;;;5088768;28;20052;-69
2023/07/14 02:12:20;;;;;;;5.22;3.30;;;614.50;2432.00;;;;;;5088888;28;20031;-69
2023/07/14 02:14:57;;;;;;;10.35;2.83;;;614.50;2432.00;;;;;;5088681;28;20462;-69
2023/07/14 02:17:27;;;;;;;7.15;3.33;;;614.50;2432.00;;;;;;5089144;28;20024;-69
2023/07/14 02:19:53;;;;;;;5.35;2.90;;;614.50;2432.00;;;;;;5079423;28;20130;-69
2023/07/14 02:22:21;;;;;;;7.32;3.33;;;614.50;2432.00;;;;;;5092436;28;20035;-69
2023/07/14 02:24:48;;;;;;;9.75;3.15;;;614.50;2432.00;;;;;;5092656;28;20031;-69
2023/07/14 02:27:14;;;;;;;4.95;3.33;;;614.40;2432.00;;;;;;5092407;28;20107;-69
2023/07/14 02:29:40;;;;;;;8.88;3.92;;;614.40;2432.00;;;;;;5092598;28;20656;-68
2023/07/14 02:32:44;;;;;;;10.20;3.25;;;614.40;2432.00;;;;;;5092233;28;20417;-68
2023/07/14 02:35:22;;;;;;;7.55;3.55;;;614.40;2432.00;;;;;;5029844;28;20561;-68
2023/07/14 02:38:03;;;;;;;5.00;3.13;;;614.40;2432.00;;;;;;5030108;28;20026;-69
2023/07/14 02:40:39;;;;;;;8.90;3.80;;;614.40;2432.00;;;;;;5030001;28;20095;-65
2023/07/14 02:43:10;;;;;;;6.55;3.25;;;614.40;2432.00;;;;;;5029668;28;20535;-65
2023/07/14 02:45:59;;;;;;;8.85;3.22;;;614.40;2432.00;;;;;;5029408;28;20036;-65
2023/07/14 02:48:39;;;;;;;8.23;4.28;;;614.40;2432.00;;;;;;5028495;28;20095;-66
2023/07/14 02:51:06;;;;;;;7.40;3.00;;;614.40;2432.00;;;;;;5029190;28;20033;-67
2023/07/14 02:53:31;;;;;;;7.65;3.30;;;589.70;2432.00;;;;;;5029094;28;20057;-67
2023/07/14 02:55:57;;;;;;;4.25;3.25;;;589.70;2432.00;;;;;;5029294;28;20060;-69
2023/07/14 02:58:23;;;;;;;4.90;3.60;;;589.70;2432.00;;;;;;5029308;28;20023;-67
2023/07/14 03:00:49;;;;;;;8.95;3.00;;;589.70;2432.00;;;;;;5029297;28;20072;-66
2023/07/14 03:03:15;;;;;;;8.80;3.38;;;589.70;2432.00;;;;;;5028841;28;20047;-66
2023/07/14 03:05:43;;;;;;;7.70;3.85;;;589.70;2432.00;;;;;;5028987;28;20029;-66
2023/07/14 03:08:14;;;;;;;5.90;3.65;;;;;;;;;;5034038;28;20044;-66
2023/07/14 03:10:40;;;;;;;6.90;3.85;;;;;;;;;;5083558;28;20470;-67
2023/07/14 03:13:06;;;;;;;10.73;3.38;;;589.60;2432.00;;;;;;5091593;28;20024;-67
2023/07/14 03:15:32;;;;;;;7.93;3.90;;;589.60;2432.00;;;;;;5091502;28;20073;-67
2023/07/14 03:17:57;;;;;;;8.73;3.80;;;589.60;2432.00;;;;;;5091151;28;20024;-69
2023/07/14 03:20:23;;;;;;;10.15;3.85;;;589.50;2432.00;;;;;;5091251;28;20054;-67
2023/07/14 03:22:49;;;;;;;8.20;2.92;;;589.60;2432.00;;;;;;5091352;28;20024;-67
2023/07/14 03:25:15;;;;;;;4.88;3.67;;;589.50;2432.00;;;;;;5090993;28;20039;-67
2023/07/14 03:27:41;;;;;;;5.80;3.75;;;589.60;2432.00;;;;;;5090809;28;20024;-68
2023/07/14 03:30:07;;;;;;;10.90;4.10;;;589.60;2432.00;;;;;;5090918;28;20058;-68
2023/07/14 03:32:33;;;;;;;6.43;3.10;;;589.40;2432.00;;;;;;5090593;28;20027;-68
2023/07/14 03:34:59;;;;;;;10.73;3.35;;;589.50;2432.00;;;;;;5091135;28;20024;-68
2023/07/14 03:37:24;;;;;;;9.30;3.40;;;589.50;2432.00;;;;;;5090927;28;20016;-68
2023/07/14 03:39:50;;;;;;;8.38;3.85;;;589.60;2432.00;;;;;;5091236;28;20130;-68
2023/07/14 03:42:16;;;;;;;6.88;3.75;;;589.50;2432.00;;;;;;5090750;28;20073;-68
2023/07/14 03:44:41;;;;;;;10.20;3.65;;;589.60;2432.00;;;;;;5090814;28;20024;-69
2023/07/14 03:47:07;;;;;;;5.90;3.50;;;589.60;2432.00;;;;;;5090451;28;20438;-68
2023/07/14 03:49:32;;;;;;;5.07;3.20;;;589.60;2432.00;;;;;;5090741;28;20040;-69
2023/07/14 03:51:58;;;;;;;9.05;3.55;;;589.60;2432.00;;;;;;5090975;28;20029;-68
2023/07/14 03:54:24;;;;;;;6.85;3.75;;;589.70;2432.00;;;;;;5090684;28;20028;-69
2023/07/14 03:56:52;;;;;;;9.75;4.10;;;589.70;2432.00;;;;;;5090541;28;20386;-67
2023/07/14 03:59:18;;;;;;;6.53;3.53;;;589.70;2432.00;;;;;;5090755;28;20478;-66
2023/07/14 04:01:43;;;;;;;9.68;4.20;;;589.70;2432.00;;;;;;5090398;28;20029;-66
2023/07/14 04:04:09;;;;;;;10.20;3.92;;;614.40;2432.00;;;;;;5090741;28;20073;-66
2023/07/14 04:06:35;;;;;;;6.25;3.85;;;614.50;2432.00;;;;;;5090244;28;20016;-67
2023/07/14 04:09:01;;;;;;;5.70;3.50;;;614.50;2432.00;;;;;;5090362;28;20039;-67
2023/07/14 04:11:27;;;;;;;6.97;3.42;;;614.60;2432.00;;;;;;5090284;28;20485;-67
2023/07/14 04:13:53;;;;;;;6.20;3.58;;;614.90;2432.00;;;;;;5090572;28;20081;-67
2023/07/14 04:16:23;;;;;;;6.60;4.20;;;614.90;2432.00;;;;;;5090167;28;20572;-68
2023/07/14 04:18:49;;;;;;;8.30;3.47;;;615.00;2432.00;;;;;;5090209;28;20399;-66
2023/07/14 04:21:15;;;;;;;6.70;4.20;;;615.10;2432.00;;;;;;5089877;28;20024;-68
2023/07/14 04:23:41;;;;;;;10.13;3.85;;;615.30;2432.00;;;;;;5090226;28;20037;-68
2023/07/14 04:26:08;;;;;;;14.80;4.07;;;615.20;2432.00;;;;;;5089944;28;20530;-67
2023/07/14 04:28:35;;;;;;;7.75;4.18;;;615.30;2432.00;;;;;;5090030;28;20150;-68
2023/07/14 04:31:01;;;;;;;6.32;4.13;;;640.10;2432.00;;;;;;5089730;28;20045;-68
2023/07/14 04:33:27;;;;;;;6.47;3.42;;;640.20;2432.00;;;;;;5089799;28;20046;-68
2023/07/14 04:35:55;;;;;;;6.78;4.00;;;640.40;2432.00;;;;;;5089770;28;20016;-68
2023/07/14 04:38:23;;;;;;;6.60;4.32;;;640.60;2432.00;;;;;;5089820;28;20466;-68
2023/07/14 04:40:49;;;;;;;5.45;3.75;;;;;;;;;;5089075;28;20024;-68
2023/07/14 04:43:16;;;;;;;5.85;3.58;;;640.50;2432.00;;;;;;5090045;28;20107;-67
2023/07/14 04:45:44;;;;;;;10.43;4.20;;;716.80;2432.00;;;;;;5088536;28;20365;-68
2023/07/14 04:48:17;;;;;;;6.72;4.28;;;768.10;2329.60;;;;;;5088120;28;20056;-68
2023/07/14 04:50:45;;;;;;;7.65;4.47;;;794.40;2176.00;;;;;;5089833;28;20373;-67
2023/07/14 04:53:11;;;;;;;5.30;4.07;;;820.10;2022.40;;;;;;5089699;28;20089;-67
2023/07/14 04:55:37;;;;;;;5.88;3.83;;;845.50;1945.60;;;;;;5089477;28;20051;-67
2023/07/14 04:58:04;;;;;;;6.53;4.45;;;870.60;1868.80;;;;;;5089217;28;20059;-68
2023/07/14 05:00:31;;;;;;;6.95;4.13;;;896.00;1792.00;;;;;;5089734;28;20089;-66
2023/07/14 05:02:57;;;;;;;5.50;3.55;;;896.50;1740.80;;;;;;5088900;28;20379;-67
2023/07/14 05:05:26;;;;;;;7.00;4.25;;;896.90;1689.60;;;;;;5089188;28;20020;-67
2023/07/14 05:07:52;;;;;;;6.07;3.85;;;896.30;1715.20;;;;;;5085326;28;20074;-67
2023/07/14 05:10:20;;;;;;;7.13;4.70;;;896.80;1689.60;;;;;;5071039;28;20044;-66
2023/07/14 05:12:49;;;;;;;7.93;5.03;;;922.00;1664.00;;;;;;5081142;28;20024;-66
2023/07/14 05:15:15;;;;;;;6.85;5.50;;;947.30;1612.80;;;;;;5077532;28;20055;-65
2023/07/14 05:17:44;;;;;;;6.70;4.60;;;972.90;1561.60;;;;;;5082649;28;20075;-64
2023/07/14 05:20:12;;;;;;;7.05;5.85;;;998.40;1510.40;;;;;;5078175;28;20089;-65
2023/07/14 05:22:43;;;;;;;6.90;4.90;;;999.20;1459.20;;;;;;5077749;28;20024;-64
2023/07/14 05:25:09;;;;;;;7.03;5.55;;;1024.10;1459.20;;;;;;5075008;28;20081;-66
2023/07/14 05:27:35;;;;;;;7.72;5.47;;;1049.60;1433.60;;;;;;5080402;28;20427;-64
2023/07/14 05:30:06;;;;;;;9.60;6.97;;;1050.10;1382.40;;;;;;5083165;28;20112;-67
2023/07/14 05:32:32;;;;;;;8.98;6.15;;;1075.20;1331.20;;;;;;5077112;28;20054;-67
2023/07/14 05:34:58;;;;;;;7.13;5.97;;;1075.60;1305.60;;;;;;5072622;28;20050;-65
2023/07/14 05:37:24;;;;;;;7.05;6.35;;;1075.50;1331.20;;;;;;5072279;28;20044;-65
2023/07/14 05:39:50;;;;;;;7.38;6.78;;;1075.90;1305.60;;;;;;5078923;28;20029;-63
2023/07/14 05:42:16;;;;;;;6.18;5.68;;;1075.90;1305.60;;;;;;5080427;28;20031;-65
2023/07/14 05:44:42;;;;;;;7.82;7.03;;;1075.70;1305.60;;;;;;5072499;28;20368;-63
2023/07/14 05:47:08;;;;;;;9.45;7.07;;;1101.00;1305.60;;;;;;5072875;28;20120;-62
2023/07/14 05:49:34;;;;;;;7.38;6.60;;;1101.10;1280.00;;;;;;5073033;28;20036;-63
2023/07/14 05:52:00;;;;;;;8.27;6.45;;;1101.10;1280.00;;;;;;5074702;28;20580;-63
2023/07/14 05:54:25;;;;;;;9.23;7.18;;;1101.10;1280.00;;;;;;5075068;28;20518;-62
2023/07/14 05:56:51;;;;;;;8.00;7.15;;;1101.00;1280.00;;;;;;5076812;28;20030;-62
2023/07/14 05:59:17;;;;;;;7.05;6.35;;;1101.50;1254.40;;;;;;5081752;28;20032;-62
2023/07/14 06:01:45;;;;;;;7.03;6.38;;;1126.40;1254.40;;;;;;5081463;28;20040;-63
2023/07/14 06:04:12;;;;;;;8.52;7.80;;;1126.50;1254.40;;;;;;5076101;28;20105;-63
2023/07/14 06:06:38;;;;;;;7.78;6.97;;;1127.10;1228.80;;;;;;5076437;28;20024;-62
2023/07/14 06:09:05;;;;;;;9.93;7.60;;;1152.20;1203.20;;;;;;5082773;28;20048;-62
2023/07/14 06:11:31;;;;;;;8.05;7.45;;;1152.70;1177.60;;;;;;5080522;28;20318;-62
2023/07/14 06:13:57;;;;;;;8.13;7.47;;;1177.80;1152.00;;;;;;5083738;28;20081;-63
2023/07/14 06:16:23;;;;;;;8.68;7.15;;;1152.70;1177.60;;;;;;5080366;28;20031;-66
2023/07/14 06:18:50;;;;;;;7.90;7.15;;;1178.00;1152.00;;;;;;5079231;28;20036;-65
2023/07/14 06:21:16;;;;;;;7.97;7.20;;;1178.10;1126.40;;;;;;5079773;28;20446;-64
2023/07/14 06:23:42;;;;;;;8.90;8.20;;;1178.00;1152.00;;;;;;5079287;28;20116;-66
2023/07/14 06:26:07;;;;;;;8.65;8.05;;;1152.90;1152.00;;;;;;5083212;28;20027;-65
2023/07/14 06:28:33;;;;;;;8.43;7.82;;;1177.60;1152.00;;;;;;5080786;28;20032;-64
2023/07/14 06:31:04;;;;;;;9.90;8.27;;;1177.80;1152.00;;;;;;5086299;28;20033;-65
2023/07/14 06:33:31;;;;;;;9.63;7.97;;;1178.10;1126.40;;;;;;5079488;28;20036;-65
2023/07/14 06:35:57;;;;;;;9.07;8.25;;;1178.10;1126.40;;;;;;5083314;28;20423;-65
2023/07/14 06:38:24;;;;;;;10.05;8.30;;;1178.20;1126.40;;;;;;5076634;28;20025;-66
2023/07/14 06:41:02;;;;;;;8.63;7.82;;;1178.20;1100.80;;;;;;5080804;28;20094;-65
2023/07/14 06:43:30;;;;;;;8.82;8.02;;;1203.40;1126.40;;;;;;5081283;28;20100;-64
2023/07/14 06:45:55;;;;;;;6.80;6.22;;;1228.80;1100.80;;;;;;5083495;28;20493;-65
2023/07/14 06:48:21;;;;;;;8.93;8.32;;;1203.20;1100.80;;;;;;5077277;28;20088;-64
2023/07/14 06:50:47;;;;;;;9.23;8.57;;;1178.20;1126.40;;;;;;5075851;28;20028;-62
2023/07/14 06:53:13;;;;;;;10.18;9.25;;;1203.40;1126.40;;;;;;5081264;28;20114;-65
2023/07/14 06:55:39;;;;;;;10.60;8.93;;;1203.80;1100.80;;;;;;5077214;28;20064;-63
2023/07/14 06:58:06;;;;;;;8.32;7.72;;;1203.80;1100.80;;;;;;5074820;28;20024;-67
2023/07/14 07:00:33;;;;;;;8.00;7.40;;;1228.80;1100.80;;;;;;5074330;28;20033;-64
2023/07/14 07:02:59;;;;;;;9.43;8.13;;;1203.60;1100.80;;;;;;5084411;28;20032;-64
2023/07/14 07:05:25;;;;;;;10.75;8.45;;;1203.40;1100.80;;;;;;5079397;28;20478;-63
2023/07/14 07:07:51;;;;;;;8.63;7.93;;;1229.00;1075.20;;;;;;5080826;28;20036;-64
2023/07/14 07:10:17;;;;;;;8.35;7.75;;;1229.50;1075.20;;;;;;5079526;28;20056;-63
2023/07/14 07:12:43;;;;;;;9.13;8.55;;;1229.30;1075.20;;;;;;5078557;28;20072;-64
2023/07/14 07:15:09;;;;;;;10.27;9.20;;;1229.40;1075.20;;;;;;5083538;28;20060;-63
2023/07/14 07:17:37;;;;;;;9.82;8.98;;;1254.80;1075.20;;;;;;5080538;28;20020;-65
2023/07/14 07:20:04;;;;;;;5.50;4.95;;;1254.50;1100.80;;;;;;5079368;28;20033;-63
2023/07/14 07:22:30;;;;;;;10.45;7.72;;;1152.60;1126.40;;;;;;5083365;28;20024;-62
2023/07/14 07:24:56;;;;;;;8.75;8.05;;;1126.60;1203.20;;;;;;5076808;28;20378;-64
2023/07/14 07:27:22;;;;;;;10.32;7.97;;;1152.90;1152.00;;;;;;5082756;28;20028;-62
2023/07/14 07:29:47;;;;;;;8.70;8.10;;;1203.30;1126.40;;;;;;5073577;28;20115;-61
2023/07/14 07:32:13;;;;;;;8.02;7.30;;;1203.70;1100.80;;;;;;5077893;28;20470;-59
2023/07/14 07:34:39;;;;;;;9.15;8.55;;;1203.70;1075.20;;;;;;5082857;28;20028;-63
2023/07/14 07:37:05;;;;;;;9.35;8.57;;;1203.80;1075.20;;;;;;5080344;28;20556;-61
2023/07/14 07:39:32;;;;;;;8.55;7.95;;;1228.80;1075.20;;;;;;5075343;28;20089;-62
2023/07/14 07:41:57;;;;;;;8.75;8.20;;;1229.40;1075.20;;;;;;5080694;28;20036;-61
2023/07/14 07:44:23;;;;;;;8.93;8.27;;;1229.50;1075.20;;;;;;5083745;28;20024;-63
2023/07/14 07:46:49;;;;;;;8.40;7.57;;;1229.40;1075.20;;;;;;5080992;28;20135;-66
2023/07/14 07:49:15;;;;;;;9.38;8.63;;;1229.20;1075.20;;;;;;5076737;28;20147;-62
2023/07/14 07:51:41;;;;;;;9.40;8.55;;;1254.40;1075.20;;;;;;5080433;28;20020;-63
2023/07/14 07:54:06;;;;;;;9.65;8.80;;;1254.80;1075.20;;;;;;5078326;28;20024;-62
2023/07/14 07:56:33;;;;;;;8.82;8.13;;;1255.00;1049.60;;;;;;5081112;28;20051;-62
2023/07/14 07:58:59;;;;;;;8.15;7.45;;;1254.80;1049.60;;;;;;5075138;28;20059;-62
2023/07/14 08:01:25;;;;;;;8.82;8.32;;;1229.30;1075.20;;;;;;5081793;28;20403;-62
2023/07/14 08:03:51;;;;;;;8.90;8.30;;;1229.50;1075.20;;;;;;5073356;28;20031;-64
2023/07/14 08:06:18;;;;;;;8.70;8.10;;;1254.40;1075.20;;;;;;5072915;28;20020;-63
2023/07/14 08:08:46;;;;;;;7.70;7.20;;;1229.20;1075.20;;;;;;5081060;28;20094;-63
2023/07/14 08:11:13;;;;;;;8.68;7.93;;;1254.40;1049.60;;;;;;5072815;28;20043;-62
2023/07/14 08:13:40;;;;;;;8.07;7.55;;;1229.40;1049.60;;;;;;5072737;28;20071;-63
2023/07/14 08:16:05;;;;;;;8.35;7.70;;;1229.40;1049.60;;;;;;5079164;28;20020;-62
2023/07/14 08:18:32;;;;;;;8.40;7.75;;;;;;;;;;5077517;28;20494;-63
2023/07/14 08:20:58;;;;;;;8.07;7.45;;;1204.10;1049.60;;;;;;5080746;28;20028;-62
2023/07/14 08:23:25;;;;;;;7.63;7.03;;;1126.80;1126.40;;;;;;5083853;28;20479;-61
2023/07/14 08:25:55;;;;;;;6.25;5.75;;;1100.90;1177.60;;;;;;5079371;28;20047;-61
2023/07/14 08:28:22;;;;;;;5.10;4.70;;;1049.80;1254.40;;;;;;5075707;28;20025;-61
2023/07/14 08:30:49;;;;;;;7.60;4.28;;;999.00;1305.60;;;;;;5077695;28;20047;-61
2023/07/14 08:33:16;;;;;;;4.50;4.10;;;998.70;1331.20;;;;;;5079611;28;20470;-62
2023/07/14 08:35:42;;;;;;;4.10;3.70;;;973.60;1331.20;;;;;;5073377;28;20095;-62
2023/07/14 08:38:07;;;;;;;4.88;4.20;;;972.90;1331.20;;;;;;5079049;28;20099;-61
2023/07/14 08:40:41;;;;;;;4.60;4.20;;;947.90;1356.80;;;;;;5076783;28;20020;-61
2023/07/14 08:43:38;;;;;;;5.55;4.28;;;947.50;1356.80;;;;;;5074306;28;20028;-61
2023/07/14 08:46:33;;;;;;;5.15;4.65;;;947.20;1356.80;;;;;;5055782;28;20040;-63
2023/07/14 08:49:27;;;;;;;5.22;4.72;;;922.00;1382.40;;;;;;5014540;28;20069;-60
2023/07/14 08:51:58;;;;;;;5.03;4.30;;;922.00;1433.60;;;;;;4979161;28;20136;-62
2023/07/14 08:54:41;;;;;;;5.28;4.78;;;921.70;1408.00;;;;;;4972427;28;20141;-61
2023/07/14 08:57:19;;;;;;;5.63;4.55;;;921.90;1408.00;;;;;;4975884;28;20042;-62
2023/07/14 08:59:45;;;;;;;5.65;3.78;;;896.90;1382.40;;;;;;4976112;28;20046;-62
2023/07/14 09:02:55;;;;;;;4.75;4.10;;;896.90;1382.40;;;;;;4982047;28;20046;-64
2023/07/14 09:05:26;;;;;;;5.45;4.20;;;871.30;1433.60;;;;;;4929239;29;20087;-60
2023/07/14 09:07:53;;;;;;;4.47;3.75;;;871.30;1459.20;;;;;;4938262;29;20051;-61
2023/07/14 09:10:31;;;;;;;6.13;4.05;;;871.30;1484.80;;;;;;4934085;29;20102;-62
2023/07/14 09:13:09;;;;;;;5.38;4.22;;;871.00;1510.40;;;;;;4937685;29;20545;-61
2023/07/14 09:15:35;;;;;;;5.00;4.00;;;871.10;1510.40;;;;;;4933296;29;20039;-61
2023/07/14 09:18:21;;;;;;;4.85;4.45;;;871.10;1484.80;;;;;;4935356;28;20218;-61
2023/07/14 09:21:00;;;;;;;8.48;4.70;;;871.10;1459.20;;;;;;4932837;28;20624;-62
2023/07/14 09:23:47;;;;;;;4.47;3.63;;;871.10;1484.80;;;;;;4940604;29;20520;-60
2023/07/14 09:26:30;;;;;;;5.50;4.60;;;871.00;1484.80;;;;;;4962144;28;20041;-61
2023/07/14 09:28:58;;;;;;;5.15;4.32;;;870.80;1536.00;;;;;;4996878;28;20061;-61
2023/07/14 09:31:57;;;;;;;5.65;4.65;;;870.70;1484.80;;;;;;5007737;28;20034;-61
2023/07/14 09:34:37;;;;;;;5.50;4.55;;;870.50;1484.80;;;;;;5015980;28;20435;-61
2023/07/14 09:37:17;;;;;;;4.93;4.43;;;870.50;1561.60;;;;;;5009746;28;20476;-61
2023/07/14 09:39:45;;;;;;;5.18;4.22;;;870.50;1510.40;;;;;;5009959;28;20713;-61
2023/07/14 09:42:18;;;;;;;5.95;4.18;;;870.70;1510.40;;;;;;5069491;28;20033;-65
2023/07/14 09:44:44;;;;;;;4.30;3.42;;;870.50;1536.00;;;;;;5069116;28;20028;-60
2023/07/14 09:47:10;;;;;;;4.15;3.75;;;;;;;;;;5069525;28;20052;-60
2023/07/14 09:49:57;;;;;;;3.92;3.20;;;;;;;;;;5072992;28;20055;-61
2023/07/14 09:52:26;;;;;;;4.82;3.40;;;;;;;;;;5078262;28;20048;-62
2023/07/14 09:54:57;;;;;;;5.07;3.08;;;;;;;;;;5073605;28;20119;-62
2023/07/14 09:57:32;;;;;;;3.53;3.03;;;;;;;;;;5069319;28;20032;-61
2023/07/14 10:00:02;;;;;;;3.30;3.00;;;;;;;;;;5071647;28;20430;-61
2023/07/14 10:02:31;;;;;;;4.25;3.05;;;;;;;;;;5070601;28;20103;-61
2023/07/14 10:05:17;;;;;;;3.50;3.10;;;;;;;;;;5074386;28;20245;-59
2023/07/14 10:07:43;;;;;;;4.22;2.90;;;;;;;;;;5071585;28;20578;-65
2023/07/14 10:10:14;;;;;;;3.55;2.90;;;845.60;1587.20;;;;;;5072225;28;20387;-64
2023/07/14 10:12:46;;;;;;;3.92;3.20;;;845.10;1638.40;;;;;;5077207;28;20097;-61
2023/07/14 10:15:24;;;;;;;5.28;2.97;;;845.20;1638.40;;;;;;5070430;28;20040;-61
2023/07/14 10:17:57;;;;;;;5.18;3.10;;;845.30;1638.40;;;;;;5075554;28;20032;-61
2023/07/14 10:20:24;;;;;;;4.80;2.85;;;845.00;1587.20;;;;;;5071578;28;20450;-61
2023/07/14 10:22:52;;;;;;;3.70;2.70;;;845.00;1638.40;;;;;;5071217;28;20035;-65
2023/07/14 10:25:19;;;;;;;4.00;2.97;;;845.20;1612.80;;;;;;5072269;28;20036;-61
2023/07/14 10:28:03;;;;;;;5.90;3.15;;;845.20;1612.80;;;;;;5069198;28;20036;-62
2023/07/14 10:31:02;;;;;;;106.07;94.53;;;845.40;1587.20;;;;;;5071525;28;20085;-67
2023/07/14 10:33:47;;;;;;;4.03;3.13;;;845.40;1587.20;;;;;;5068220;28;20065;-63
2023/07/14 10:36:21;;;;;;;314.55;251.63;;;845.30;1612.80;;;;;;5068197;28;20112;-63
2023/07/14 10:39:06;;;;;;;7.50;6.63;;;845.30;1638.40;;;;;;5070270;28;20375;-62
2023/07/14 10:41:35;;;;;;;3.58;3.25;;;845.20;1587.20;;;;;;5076700;28;20024;-62
2023/07/14 10:44:06;;;;;;;3.10;2.58;;;845.20;1638.40;;;;;;5071892;28;20071;-63
2023/07/14 10:46:40;;;;;;;4.57;3.38;;;845.00;1638.40;;;;;;5073290;28;20043;-62
2023/07/14 10:49:25;;;;;;;4.75;3.47;;;844.90;1612.80;;;;;;5071833;28;20059;-63
2023/07/14 10:51:54;;;;;;;4.50;2.90;;;;;;;;;;5071842;28;20021;-64
2023/07/14 10:54:24;;;;;;;5.85;5.15;;;;;;;;;;5071865;28;20029;-62
2023/07/14 10:57:03;;;;;;;4.25;2.90;;;;;;;;;;5090187;28;20363;-62
2023/07/14 10:59:29;;;;;;;3.50;2.88;;;;;;;;;;5076192;28;20470;-61
2023/07/14 11:02:01;;;;;;;4.90;2.70;;;;;;;;;;5071126;28;20068;-63
2023/07/14 11:04:33;;;;;;;4.88;2.63;;;819.60;1638.40;;;;;;5088600;28;20074;-63
2023/07/14 11:07:00;;;;;;;6.65;4.78;;;794.20;1715.20;;;;;;5091846;28;20537;-63
2023/07/14 11:09:28;;;;;;;5.75;4.90;;;819.40;1689.60;;;;;;5077401;28;20081;-64
2023/07/14 11:12:06;;;;;;;4.28;3.83;;;819.80;1689.60;;;;;;5091419;28;20046;-64
2023/07/14 11:14:53;;;;;;;3.30;2.85;;;844.80;1664.00;;;;;;5091606;28;20366;-63
2023/07/14 11:17:22;;;;;;;5.13;3.97;;;;;;;;;;5091610;28;20417;-64
2023/07/14 11:20:08;;;;;;;9.35;4.47;;;;;;;;;;5091792;28;20043;-63
2023/07/14 11:23:10;;;;;;;5.15;3.83;;;;;;;;;;5091242;28;20024;-64
2023/07/14 11:25:43;;;;;;;4.40;3.25;;;;;;;;;;5028759;28;20522;-63
2023/07/14 11:28:18;;;;;;;3.78;3.10;;;;;;;;;;5029026;28;20065;-63
2023/07/14 11:30:46;;;;;;;3.90;2.83;;;;;;;;;;5028455;28;20038;-64
2023/07/14 11:33:22;;;;;;;5.20;3.50;;;845.70;1664.00;;;;;;5028538;28;20045;-64
2023/07/14 11:36:11;;;;;;;4.20;3.80;;;845.50;1715.20;;;;;;5028879;28;20041;-64
2023/07/14 11:38:57;;;;;;;4.15;3.20;;;845.70;1664.00;;;;;;5028759;28;20040;-64
2023/07/14 11:41:24;;;;;;;3.92;3.33;;;870.40;1664.00;;;;;;5028312;28;20606;-63
2023/07/14 11:43:51;;;;;;;4.55;3.45;;;845.50;1664.00;;;;;;5028582;28;20171;-64
2023/07/14 11:46:19;;;;;;;4.35;3.22;;;845.40;1664.00;;;;;;5028135;28;20403;-64
2023/07/14 11:48:54;;;;;;;6.03;3.65;;;845.40;1689.60;;;;;;5027801;28;20064;-62
2023/07/14 11:51:41;;;;;;;4.15;3.20;;;845.30;1664.00;;;;;;5028659;28;20441;-63
2023/07/14 11:54:23;;;;;;;5.10;3.75;;;845.40;1689.60;;;;;;5028046;28;20115;-64
2023/07/14 11:57:01;;;;;;;4.30;3.50;;;870.40;1612.80;;;;;;5028440;28;20037;-64
2023/07/14 11:59:32;;;;;;;5.07;4.57;;;870.60;1612.80;;;;;;5056177;28;20028;-62
2023/07/14 12:02:38;;;;;;;5.43;4.18;;;;;;;;;;5077989;28;20008;-62
2023/07/14 12:05:17;;;;;;;7.22;3.60;;;870.70;1587.20;;;;;;5018080;28;20795;-64
2023/07/14 12:08:04;;;;;;;5.18;3.58;;;870.60;1638.40;;;;;;5014609;28;20067;-65
2023/07/14 12:10:38;;;;;;;4.05;3.65;;;870.50;1612.80;;;;;;5022608;28;20085;-64
2023/07/14 12:13:18;;;;;;;4.18;3.78;;;870.60;1638.40;;;;;;5008205;28;20048;-62
2023/07/14 12:15:46;;;;;;;5.63;3.88;;;870.50;1664.00;;;;;;5009611;28;20069;-65
2023/07/14 12:18:32;;;;;;;4.10;3.35;;;845.40;1664.00;;;;;;5020606;28;20026;-63
2023/07/14 12:21:34;;;;;;;5.13;3.22;;;845.30;1689.60;;;;;;5007923;28;20025;-62
2023/07/14 12:24:36;;;;;;;4.05;3.65;;;845.10;1664.00;;;;;;5008035;28;20504;-63
2023/07/14 12:27:36;;;;;;;6.00;3.50;;;845.20;1740.80;;;;;;4998118;28;20045;-63
2023/07/14 12:30:22;;;;;;;4.68;3.35;;;;;;;;;;5018318;28;20064;-64
2023/07/14 12:32:48;;;;;;;6.13;4.05;;;;;;;;;;5007491;28;20029;-68
2023/07/14 12:35:15;;;;;;;6.43;3.53;;;;;;;;;;5024268;28;20036;-63
2023/07/14 12:37:42;;;;;;;6.07;3.55;;;;;;;;;;5069667;28;20344;-63
2023/07/14 12:40:34;;;;;;;4.55;3.85;;;819.20;1715.20;;;;;;5069887;28;20055;-63
2023/07/14 12:43:00;;;;;;;5.20;3.60;;;;;;;;;;5070141;28;20043;-63
2023/07/14 12:45:27;;;;;;;5.10;4.13;;;819.60;1740.80;;;;;;5069453;28;20024;-63